Time;durP1;ratioP1;P1;durP2;ratioP2;P2;SDS_P1;SDS_P2;PMS_P1;PMS_P2;Temp;Humidity;BMP_temperature;BMP_pressure;BME280_temperature;BME280_humidity;BME280_pressure;Samples;Min_cycle;Max_cycle;Signal;HPM_P1;HPM_P2
2021/09/17 00:01:26;;;;;;;10.80;8.90;;;16.20;80.50;;;;;;4997211;28;20084;-70
2021/09/17 00:03:52;;;;;;;10.05;8.18;;;16.20;80.40;;;;;;4998197;28;20121;-69
2021/09/17 00:06:18;;;;;;;10.02;8.50;;;16.20;80.30;;;;;;4997621;28;20034;-69
2021/09/17 00:08:43;;;;;;;9.65;8.40;;;16.20;80.10;;;;;;4998019;28;20042;-69
2021/09/17 00:11:09;;;;;;;10.52;8.45;;;16.20;80.00;;;;;;4995695;28;20038;-69
2021/09/17 00:13:36;;;;;;;9.55;8.27;;;16.20;80.10;;;;;;4997251;28;20041;-70
2021/09/17 00:16:01;;;;;;;11.10;8.52;;;16.10;80.10;;;;;;5002841;28;20122;-69
2021/09/17 00:18:27;;;;;;;11.02;8.55;;;16.10;80.40;;;;;;4997172;28;20128;-70
2021/09/17 00:20:53;;;;;;;8.70;7.70;;;16.10;80.30;;;;;;4997021;28;20522;-69
2021/09/17 00:23:18;;;;;;;8.57;7.65;;;16.10;80.30;;;;;;4994237;28;20114;-70
2021/09/17 00:25:44;;;;;;;11.05;7.65;;;16.10;80.50;;;;;;4999735;28;20037;-69
2021/09/17 00:28:09;;;;;;;12.55;8.63;;;16.10;80.80;;;;;;5003558;28;20046;-69
2021/09/17 00:30:35;;;;;;;11.85;9.02;;;16.10;81.70;;;;;;4998822;28;20054;-69
2021/09/17 00:33:03;;;;;;;11.55;8.57;;;16.10;80.70;;;;;;5002194;28;20046;-70
2021/09/17 00:35:29;;;;;;;12.68;8.27;;;16.20;80.50;;;;;;5003994;28;20057;-71
2021/09/17 00:37:54;;;;;;;8.98;8.05;;;16.20;80.60;;;;;;5003301;28;20798;-69
2021/09/17 00:40:21;;;;;;;9.70;8.43;;;16.20;80.50;;;;;;5000874;28;20038;-70
2021/09/17 00:42:47;;;;;;;9.40;7.10;;;16.20;80.30;;;;;;4999270;28;20041;-70
2021/09/17 00:45:13;;;;;;;8.60;7.43;;;16.20;80.30;;;;;;5001189;28;20067;-70
2021/09/17 00:47:39;;;;;;;8.55;7.65;;;16.30;80.30;;;;;;4999910;28;20508;-71
2021/09/17 00:50:08;;;;;;;9.50;6.72;;;16.20;80.10;;;;;;5000765;28;20042;-69
2021/09/17 00:52:33;;;;;;;8.50;7.55;;;16.30;80.50;;;;;;5000691;28;20556;-69
2021/09/17 00:54:59;;;;;;;9.50;8.02;;;16.30;80.30;;;;;;5000420;28;20120;-69
2021/09/17 00:57:25;;;;;;;8.70;7.80;;;16.30;80.20;;;;;;5000316;28;20057;-70
2021/09/17 00:59:51;;;;;;;9.90;8.35;;;16.30;80.10;;;;;;5000557;28;20038;-69
2021/09/17 01:02:19;;;;;;;8.85;7.88;;;16.20;79.80;;;;;;5000080;28;20046;-67
2021/09/17 01:04:45;;;;;;;8.95;8.02;;;16.30;79.80;;;;;;5000999;28;20042;-69
2021/09/17 01:07:12;;;;;;;10.38;7.68;;;16.20;79.80;;;;;;4999179;28;20413;-69
2021/09/17 01:09:38;;;;;;;8.93;7.30;;;16.20;79.80;;;;;;5000482;28;20046;-69
2021/09/17 01:12:06;;;;;;;9.85;7.97;;;16.10;80.70;;;;;;5001019;28;20533;-69
2021/09/17 01:14:34;;;;;;;9.75;8.23;;;16.10;80.10;;;;;;4999617;28;20034;-70
2021/09/17 01:17:00;;;;;;;9.60;8.38;;;16.10;80.30;;;;;;5000072;28;21147;-69
2021/09/17 01:19:26;;;;;;;10.52;8.43;;;16.00;80.30;;;;;;4999746;28;20044;-69
2021/09/17 01:22:04;;;;;;;11.02;8.60;;;16.00;80.50;;;;;;5000802;28;20405;-69
2021/09/17 01:24:29;;;;;;;14.80;9.00;;;15.90;80.80;;;;;;5000059;28;20117;-69
2021/09/17 01:26:55;;;;;;;10.00;8.45;;;15.90;80.60;;;;;;5000003;28;20045;-70
2021/09/17 01:29:22;;;;;;;11.00;8.77;;;15.90;80.80;;;;;;4999050;28;20041;-68
2021/09/17 01:31:48;;;;;;;11.63;9.05;;;15.80;80.80;;;;;;4999740;28;20033;-70
2021/09/17 01:34:20;;;;;;;11.82;8.70;;;15.80;81.00;;;;;;4999130;28;20043;-69
2021/09/17 01:36:46;;;;;;;13.43;9.52;;;15.70;81.20;;;;;;5000507;28;20048;-69
2021/09/17 01:39:12;;;;;;;11.88;9.43;;;15.70;81.20;;;;;;5001441;28;20037;-69
2021/09/17 01:41:38;;;;;;;11.00;9.50;;;15.60;81.40;;;;;;4998661;28;20125;-70
2021/09/17 01:44:04;;;;;;;9.57;8.35;;;15.60;81.50;;;;;;5000133;28;20038;-67
2021/09/17 01:46:30;;;;;;;13.15;9.52;;;15.60;81.60;;;;;;4999143;28;20113;-69
2021/09/17 01:48:56;;;;;;;13.00;9.00;;;15.60;81.70;;;;;;5000996;28;20145;-69
2021/09/17 01:51:22;;;;;;;12.85;8.80;;;15.60;81.90;;;;;;4999875;28;20121;-70
2021/09/17 01:53:48;;;;;;;10.98;8.30;;;15.60;81.90;;;;;;5001049;28;20027;-69
2021/09/17 01:56:14;;;;;;;9.68;8.52;;;15.50;81.90;;;;;;4999527;28;20034;-69
2021/09/17 01:58:40;;;;;;;11.70;8.68;;;15.60;82.10;;;;;;5000028;28;20584;-69
2021/09/17 02:01:05;;;;;;;9.85;8.02;;;15.60;82.20;;;;;;4998788;28;20030;-69
2021/09/17 02:03:31;;;;;;;9.88;8.20;;;15.60;82.00;;;;;;4999211;28;20041;-69
2021/09/17 02:05:57;;;;;;;10.55;8.60;;;15.60;81.90;;;;;;4998897;28;20039;-70
2021/09/17 02:08:22;;;;;;;10.23;8.10;;;15.60;81.70;;;;;;5000161;28;20049;-70
2021/09/17 02:10:48;;;;;;;8.65;7.65;;;15.60;81.50;;;;;;5000040;28;20050;-70
2021/09/17 02:13:19;;;;;;;9.35;8.05;;;15.60;81.50;;;;;;4997793;28;20038;-69
2021/09/17 02:15:46;;;;;;;9.80;7.78;;;15.60;81.50;;;;;;4999721;28;20033;-69
2021/09/17 02:18:11;;;;;;;10.20;7.53;;;15.60;81.30;;;;;;4996777;28;20047;-69
2021/09/17 02:20:37;;;;;;;11.65;8.50;;;15.60;81.20;;;;;;4998798;28;20030;-69
2021/09/17 02:23:03;;;;;;;8.65;7.60;;;15.60;81.00;;;;;;4997478;28;20042;-68
2021/09/17 02:25:28;;;;;;;10.38;7.38;;;15.60;80.80;;;;;;5000019;28;20038;-67
2021/09/17 02:27:54;;;;;;;11.43;7.20;;;15.60;80.80;;;;;;5000103;28;20049;-69
2021/09/17 02:30:20;;;;;;;11.52;7.85;;;15.60;80.90;;;;;;4999380;28;20030;-69
2021/09/17 02:32:46;;;;;;;9.38;7.38;;;15.60;80.90;;;;;;4998115;28;20045;-69
2021/09/17 02:35:12;;;;;;;9.10;7.35;;;15.60;80.80;;;;;;4998031;28;20413;-69
2021/09/17 02:37:38;;;;;;;9.32;7.75;;;15.60;80.80;;;;;;4999638;28;20508;-69
2021/09/17 02:40:04;;;;;;;9.25;7.65;;;15.70;80.70;;;;;;4997952;28;20040;-69
2021/09/17 02:42:30;;;;;;;9.60;7.85;;;15.70;80.50;;;;;;4999109;28;20138;-69
2021/09/17 02:44:56;;;;;;;8.77;7.88;;;15.70;80.30;;;;;;4999834;28;20161;-69
2021/09/17 02:47:22;;;;;;;8.52;7.68;;;15.70;79.80;;;;;;5000649;28;20069;-69
2021/09/17 02:49:47;;;;;;;9.93;8.05;;;15.70;79.60;;;;;;4998087;28;20053;-69
2021/09/17 02:52:13;;;;;;;8.88;7.07;;;15.70;79.50;;;;;;4995749;28;20045;-69
2021/09/17 02:54:38;;;;;;;7.95;6.82;;;15.60;79.30;;;;;;4997084;28;20048;-69
2021/09/17 02:57:04;;;;;;;8.65;6.88;;;15.60;79.40;;;;;;4997659;28;20034;-69
2021/09/17 02:59:30;;;;;;;7.95;7.15;;;15.60;79.80;;;;;;4996902;28;20481;-69
2021/09/17 03:01:55;;;;;;;9.73;7.65;;;15.50;80.10;;;;;;4998738;28;20034;-69
2021/09/17 03:04:21;;;;;;;11.88;8.15;;;15.50;80.10;;;;;;4997081;28;20436;-69
2021/09/17 03:06:47;;;;;;;9.73;7.90;;;15.50;79.80;;;;;;4995981;28;20066;-70
2021/09/17 03:09:12;;;;;;;9.25;7.50;;;15.50;79.60;;;;;;4998004;28;20030;-70
2021/09/17 03:11:38;;;;;;;9.35;8.35;;;15.40;79.60;;;;;;4999332;28;20097;-69
2021/09/17 03:14:04;;;;;;;8.90;7.82;;;15.40;79.60;;;;;;4998504;28;20391;-70
2021/09/17 03:16:29;;;;;;;10.68;8.13;;;15.30;79.80;;;;;;4997138;28;20097;-69
2021/09/17 03:18:55;;;;;;;9.93;7.95;;;15.30;80.00;;;;;;4998990;28;20046;-68
2021/09/17 03:21:21;;;;;;;9.30;7.50;;;15.20;80.10;;;;;;4996885;28;20030;-69
2021/09/17 03:23:46;;;;;;;10.73;7.93;;;15.20;80.10;;;;;;4996446;28;20022;-69
2021/09/17 03:26:12;;;;;;;9.43;7.32;;;15.20;80.20;;;;;;4995573;28;20033;-69
2021/09/17 03:28:37;;;;;;;9.63;7.72;;;15.10;80.20;;;;;;4999361;28;20033;-69
2021/09/17 03:31:03;;;;;;;8.82;7.38;;;15.10;80.50;;;;;;4999156;28;20042;-69
2021/09/17 03:33:29;;;;;;;8.43;7.15;;;15.00;81.50;;;;;;4995359;28;22412;-69
2021/09/17 03:35:54;;;;;;;11.07;7.47;;;15.00;81.30;;;;;;4995606;28;20425;-70
2021/09/17 03:38:20;;;;;;;8.60;7.70;;;15.00;80.60;;;;;;4996684;28;20466;-68
2021/09/17 03:40:47;;;;;;;7.60;6.78;;;15.00;80.60;;;;;;4995862;28;20122;-69
2021/09/17 03:43:15;;;;;;;10.90;7.97;;;15.00;80.80;;;;;;4997980;28;20038;-69
2021/09/17 03:45:41;;;;;;;9.18;7.45;;;14.90;80.80;;;;;;4996494;28;20064;-69
2021/09/17 03:48:09;;;;;;;9.02;7.10;;;15.00;80.90;;;;;;4997325;28;20038;-69
2021/09/17 03:50:34;;;;;;;9.07;7.20;;;14.90;81.00;;;;;;4996905;28;20150;-69
2021/09/17 03:53:00;;;;;;;10.18;7.47;;;14.90;81.20;;;;;;5015112;28;20125;-69
2021/09/17 03:55:26;;;;;;;8.38;7.18;;;14.90;81.20;;;;;;4999907;28;20496;-69
2021/09/17 03:57:52;;;;;;;7.68;6.45;;;14.90;81.20;;;;;;5003601;28;20053;-69
2021/09/17 04:00:18;;;;;;;10.77;6.95;;;14.90;81.30;;;;;;4996991;28;20035;-70
2021/09/17 04:02:43;;;;;;;8.30;7.07;;;14.90;81.40;;;;;;4997256;28;20042;-69
2021/09/17 04:05:09;;;;;;;8.63;6.65;;;14.90;81.40;;;;;;4999901;28;20087;-69
2021/09/17 04:07:42;;;;;;;9.43;6.45;;;15.00;81.50;;;;;;4999619;28;20041;-69
2021/09/17 04:10:12;;;;;;;8.60;7.10;;;15.00;81.50;;;;;;4999696;28;20040;-69
2021/09/17 04:12:37;;;;;;;9.27;7.35;;;14.90;81.20;;;;;;4999691;28;20030;-69
2021/09/17 04:15:03;;;;;;;8.10;6.72;;;14.90;81.00;;;;;;5003452;28;20093;-69
2021/09/17 04:17:29;;;;;;;9.40;6.57;;;14.90;81.30;;;;;;4999238;28;20041;-68
2021/09/17 04:19:54;;;;;;;8.30;6.38;;;14.90;81.40;;;;;;5000524;28;20034;-69
2021/09/17 04:22:20;;;;;;;8.20;7.15;;;14.90;81.50;;;;;;4998924;28;20026;-67
2021/09/17 04:24:46;;;;;;;10.98;7.65;;;14.90;81.60;;;;;;5001264;28;20394;-70
2021/09/17 04:27:11;;;;;;;7.63;6.63;;;14.90;81.70;;;;;;4998027;28;20553;-69
2021/09/17 04:29:37;;;;;;;7.05;6.30;;;14.90;81.70;;;;;;4997428;28;20452;-69
2021/09/17 04:32:03;;;;;;;10.05;7.43;;;14.90;81.70;;;;;;4998897;28;20657;-69
2021/09/17 04:34:29;;;;;;;8.45;7.20;;;14.90;81.70;;;;;;5002053;28;20616;-69
2021/09/17 04:36:55;;;;;;;7.43;6.72;;;14.90;81.70;;;;;;5001359;28;20112;-68
2021/09/17 04:39:20;;;;;;;8.45;6.68;;;15.00;81.70;;;;;;5002241;28;20108;-69
2021/09/17 04:41:46;;;;;;;9.80;6.78;;;15.00;81.80;;;;;;5000244;28;20034;-69
2021/09/17 04:44:12;;;;;;;7.63;6.80;;;15.00;81.90;;;;;;5001944;28;20060;-70
2021/09/17 04:46:37;;;;;;;8.65;6.38;;;15.00;81.70;;;;;;5002688;28;20062;-69
2021/09/17 04:49:03;;;;;;;8.70;6.80;;;15.10;81.50;;;;;;5002242;28;20042;-68
2021/09/17 04:51:30;;;;;;;7.40;6.50;;;15.10;81.20;;;;;;5002889;28;20461;-69
2021/09/17 04:53:56;;;;;;;7.72;6.65;;;15.10;81.20;;;;;;5002422;28;20030;-69
2021/09/17 04:56:22;;;;;;;7.88;6.72;;;15.10;81.20;;;;;;5001831;28;20036;-70
2021/09/17 04:58:47;;;;;;;8.30;6.72;;;15.10;81.20;;;;;;5002356;28;20063;-69
2021/09/17 05:01:13;;;;;;;8.07;6.57;;;15.10;81.20;;;;;;5002904;28;20088;-68
2021/09/17 05:03:39;;;;;;;10.55;6.80;;;15.10;81.20;;;;;;5002429;28;20034;-69
2021/09/17 05:06:04;;;;;;;10.98;6.75;;;15.10;81.00;;;;;;5003119;28;20066;-68
2021/09/17 05:08:30;;;;;;;7.97;6.60;;;15.00;80.90;;;;;;5001296;28;20126;-69
2021/09/17 05:10:55;;;;;;;10.02;7.00;;;15.00;80.90;;;;;;5003500;28;20065;-68
2021/09/17 05:13:21;;;;;;;9.82;7.50;;;15.00;80.80;;;;;;5003014;28;20114;-69
2021/09/17 05:15:47;;;;;;;8.52;6.68;;;15.00;81.00;;;;;;5005188;28;20022;-69
2021/09/17 05:18:13;;;;;;;12.02;6.90;;;14.90;81.00;;;;;;5003926;28;20503;-68
2021/09/17 05:20:38;;;;;;;8.15;6.35;;;15.00;81.30;;;;;;5002384;28;20080;-69
2021/09/17 05:23:05;;;;;;;8.57;6.85;;;14.90;81.50;;;;;;5000902;28;20038;-69
2021/09/17 05:25:30;;;;;;;8.27;6.68;;;14.90;81.50;;;;;;5003210;28;20379;-69
2021/09/17 05:27:56;;;;;;;8.13;6.97;;;15.00;81.40;;;;;;5002080;28;20494;-69
2021/09/17 05:30:23;;;;;;;8.18;6.80;;;15.00;81.50;;;;;;5001519;28;20033;-70
2021/09/17 05:32:49;;;;;;;9.18;6.90;;;15.00;81.50;;;;;;5004141;28;20037;-69
2021/09/17 05:35:15;;;;;;;10.75;7.63;;;15.00;81.70;;;;;;5000247;28;20060;-69
2021/09/17 05:37:40;;;;;;;11.68;7.60;;;15.00;82.60;;;;;;5001750;28;20825;-70
2021/09/17 05:40:07;;;;;;;8.32;7.43;;;15.00;81.70;;;;;;5001522;28;20034;-70
2021/09/17 05:42:33;;;;;;;10.35;8.95;;;15.00;81.50;;;;;;4999241;28;20121;-68
2021/09/17 05:44:58;;;;;;;45.40;24.90;;;15.10;81.60;;;;;;5001609;28;20576;-70
2021/09/17 05:47:24;;;;;;;19.58;13.10;;;15.10;81.70;;;;;;5001890;28;20539;-69
2021/09/17 05:49:49;;;;;;;24.90;17.33;;;15.10;81.80;;;;;;5002001;28;20041;-66
2021/09/17 05:52:15;;;;;;;12.95;9.52;;;15.20;81.90;;;;;;5002192;28;20026;-69
2021/09/17 05:54:41;;;;;;;9.80;7.40;;;15.20;81.80;;;;;;5001380;28;20057;-69
2021/09/17 05:57:07;;;;;;;13.90;8.13;;;15.30;81.70;;;;;;5000765;28;20125;-70
2021/09/17 05:59:33;;;;;;;10.73;7.88;;;15.30;81.70;;;;;;5004233;28;20405;-68
2021/09/17 06:01:58;;;;;;;9.77;8.05;;;15.40;81.30;;;;;;5002316;28;20572;-69
2021/09/17 06:04:24;;;;;;;8.95;8.05;;;15.40;81.30;;;;;;5005065;28;20045;-68
2021/09/17 06:06:50;;;;;;;8.82;7.93;;;15.50;81.20;;;;;;5002739;28;20037;-69
2021/09/17 06:09:15;;;;;;;10.50;7.47;;;15.50;80.80;;;;;;5002828;28;20113;-70
2021/09/17 06:11:41;;;;;;;8.63;7.15;;;15.40;80.60;;;;;;5001962;28;20215;-69
2021/09/17 06:14:06;;;;;;;8.93;7.30;;;15.50;80.70;;;;;;5007144;28;20030;-69
2021/09/17 06:16:35;;;;;;;7.95;7.15;;;15.50;80.60;;;;;;5003349;28;20053;-69
2021/09/17 06:19:02;;;;;;;8.82;7.30;;;15.50;80.60;;;;;;5002549;28;20038;-69
2021/09/17 06:21:33;;;;;;;10.20;7.35;;;15.40;80.50;;;;;;5001240;28;20034;-69
2021/09/17 06:23:59;;;;;;;8.55;7.28;;;15.40;80.80;;;;;;5002885;28;20096;-69
2021/09/17 06:26:30;;;;;;;8.40;7.50;;;15.40;80.80;;;;;;5002723;28;20061;-68
2021/09/17 06:28:56;;;;;;;8.68;7.40;;;15.40;80.90;;;;;;5001342;28;20408;-69
2021/09/17 06:31:21;;;;;;;8.60;7.70;;;15.40;81.20;;;;;;5001924;28;20030;-69
2021/09/17 06:33:47;;;;;;;8.90;7.35;;;15.40;81.20;;;;;;5002626;28;20037;-69
2021/09/17 06:36:13;;;;;;;8.52;6.72;;;15.50;81.20;;;;;;5004923;28;20030;-70
2021/09/17 06:38:38;;;;;;;7.68;6.88;;;15.50;81.00;;;;;;5001970;28;20648;-69
2021/09/17 06:41:04;;;;;;;8.98;7.18;;;15.50;81.00;;;;;;5001769;28;20062;-69
2021/09/17 06:43:29;;;;;;;8.80;7.30;;;15.50;81.30;;;;;;5007375;28;20447;-69
2021/09/17 06:45:55;;;;;;;8.60;7.00;;;15.50;81.40;;;;;;5000393;28;20026;-69
2021/09/17 06:48:21;;;;;;;9.13;7.32;;;15.60;81.50;;;;;;5000070;28;20044;-68
2021/09/17 06:50:46;;;;;;;8.00;7.07;;;15.60;81.50;;;;;;5001167;28;20056;-69
2021/09/17 06:53:12;;;;;;;8.00;7.20;;;15.60;81.10;;;;;;5014948;28;20066;-69
2021/09/17 06:55:37;;;;;;;8.77;7.43;;;15.70;80.90;;;;;;5000727;28;20516;-69
2021/09/17 06:58:04;;;;;;;7.90;6.93;;;15.70;80.80;;;;;;4998243;28;20118;-68
2021/09/17 07:00:32;;;;;;;8.30;7.00;;;15.70;80.90;;;;;;4999189;28;20049;-69
2021/09/17 07:02:59;;;;;;;7.68;6.88;;;15.70;81.80;;;;;;4994301;28;20065;-69
2021/09/17 07:05:26;;;;;;;8.02;6.53;;;15.70;81.20;;;;;;4999421;28;20064;-69
2021/09/17 07:07:58;;;;;;;7.53;6.75;;;15.80;81.30;;;;;;4998422;28;20604;-69
2021/09/17 07:10:23;;;;;;;7.05;6.35;;;15.80;82.00;;;;;;4999191;28;20410;-70
2021/09/17 07:12:49;;;;;;;7.93;6.50;;;15.90;81.20;;;;;;5000831;28;20030;-69
2021/09/17 07:15:16;;;;;;;7.97;6.28;;;16.00;81.00;;;;;;5000280;28;20038;-70
2021/09/17 07:17:42;;;;;;;9.30;5.93;;;16.00;80.80;;;;;;5000506;28;20112;-69
2021/09/17 07:20:08;;;;;;;6.55;5.93;;;16.10;80.70;;;;;;4997681;28;20560;-69
2021/09/17 07:22:34;;;;;;;7.82;6.63;;;16.20;80.50;;;;;;4996555;28;20576;-70
2021/09/17 07:25:00;;;;;;;9.93;7.22;;;16.20;80.30;;;;;;4998380;28;20040;-69
2021/09/17 07:27:25;;;;;;;8.38;6.38;;;16.30;80.20;;;;;;4999672;28;20502;-69
2021/09/17 07:29:51;;;;;;;7.85;7.05;;;16.40;79.60;;;;;;5000218;28;20041;-69
2021/09/17 07:32:17;;;;;;;9.05;6.53;;;16.40;79.30;;;;;;4998934;28;20489;-69
2021/09/17 07:34:42;;;;;;;8.15;6.03;;;16.40;79.10;;;;;;4999927;28;20042;-69
2021/09/17 07:37:08;;;;;;;8.43;6.70;;;16.40;79.30;;;;;;5001372;28;20371;-70
2021/09/17 07:39:34;;;;;;;8.48;7.40;;;16.50;79.40;;;;;;5001203;28;20038;-69
2021/09/17 07:42:00;;;;;;;9.50;7.40;;;16.50;79.40;;;;;;5003718;28;20117;-69
2021/09/17 07:44:25;;;;;;;8.10;7.28;;;16.50;79.30;;;;;;5000136;28;20038;-70
2021/09/17 07:46:51;;;;;;;8.95;7.05;;;16.60;79.40;;;;;;5003373;28;20116;-70
2021/09/17 07:49:17;;;;;;;8.55;7.00;;;16.60;79.80;;;;;;5008526;28;20034;-70
2021/09/17 07:51:42;;;;;;;8.65;7.50;;;16.60;79.60;;;;;;5003888;28;20041;-70
2021/09/17 07:54:08;;;;;;;8.50;7.60;;;16.70;79.30;;;;;;5004603;28;20492;-70
2021/09/17 07:56:34;;;;;;;9.63;7.93;;;16.70;79.40;;;;;;5007534;28;20041;-69
2021/09/17 07:58:59;;;;;;;8.80;7.88;;;16.70;79.50;;;;;;5007466;28;20034;-69
2021/09/17 08:01:25;;;;;;;9.32;7.72;;;16.70;79.50;;;;;;5004221;28;20102;-69
2021/09/17 08:03:50;;;;;;;8.02;7.22;;;16.70;79.50;;;;;;5003825;28;20104;-69
2021/09/17 08:06:16;;;;;;;8.93;7.85;;;16.70;79.60;;;;;;5004168;28;20025;-69
2021/09/17 08:08:42;;;;;;;8.48;7.30;;;16.70;79.70;;;;;;5002454;28;20043;-71
2021/09/17 08:11:07;;;;;;;9.93;7.57;;;16.80;79.40;;;;;;5004766;28;20714;-70
2021/09/17 08:13:33;;;;;;;8.43;7.57;;;16.90;79.30;;;;;;5005313;28;20565;-69
2021/09/17 08:15:59;;;;;;;8.40;6.88;;;16.90;78.90;;;;;;5005631;28;20030;-69
2021/09/17 08:18:28;;;;;;;9.00;7.28;;;16.90;79.10;;;;;;5005486;28;20034;-69
2021/09/17 08:20:57;;;;;;;8.45;7.20;;;16.90;78.90;;;;;;5002435;28;20189;-70
2021/09/17 08:23:24;;;;;;;8.25;7.13;;;17.00;78.90;;;;;;5001930;28;20058;-71
2021/09/17 08:25:50;;;;;;;8.57;6.82;;;17.00;78.40;;;;;;5002307;28;20097;-70
2021/09/17 08:28:17;;;;;;;8.30;6.43;;;17.10;78.60;;;;;;5002441;28;20121;-69
2021/09/17 08:30:43;;;;;;;8.40;7.50;;;17.10;78.90;;;;;;5002665;28;20100;-69
2021/09/17 08:33:09;;;;;;;8.55;7.40;;;17.20;78.90;;;;;;5003356;28;20034;-69
2021/09/17 08:35:34;;;;;;;8.63;7.28;;;17.30;78.00;;;;;;5003787;28;20042;-69
2021/09/17 08:38:00;;;;;;;7.55;6.57;;;17.40;78.00;;;;;;5003009;28;20042;-69
2021/09/17 08:40:28;;;;;;;6.70;6.07;;;17.50;79.10;;;;;;5001274;28;20045;-69
2021/09/17 08:42:56;;;;;;;7.13;6.40;;;17.50;78.00;;;;;;5002130;28;20037;-70
2021/09/17 08:45:21;;;;;;;7.65;6.88;;;17.60;77.90;;;;;;5003385;28;20061;-69
2021/09/17 08:47:50;;;;;;;7.43;6.70;;;17.70;77.20;;;;;;5004248;28;20508;-69
2021/09/17 08:50:17;;;;;;;7.07;6.38;;;17.80;76.10;;;;;;5002951;28;20045;-69
2021/09/17 08:52:42;;;;;;;7.28;6.57;;;17.90;76.60;;;;;;5003290;28;20069;-70
2021/09/17 08:55:08;;;;;;;7.82;7.00;;;17.90;76.50;;;;;;5002651;28;20054;-69
2021/09/17 08:57:34;;;;;;;8.48;7.63;;;18.00;76.50;;;;;;5002264;28;20113;-69
2021/09/17 09:00:00;;;;;;;7.90;7.15;;;18.10;75.10;;;;;;5002269;28;20038;-69
2021/09/17 09:02:31;;;;;;;8.18;6.78;;;18.10;75.00;;;;;;4999629;28;20505;-69
2021/09/17 09:05:06;;;;;;;7.05;6.35;;;18.20;75.90;;;;;;4999883;28;20041;-69
2021/09/17 09:07:38;;;;;;;7.10;6.20;;;18.20;73.50;;;;;;5003486;28;20066;-70
2021/09/17 09:10:09;;;;;;;6.75;6.07;;;18.30;74.40;;;;;;5002954;28;20036;-71
2021/09/17 09:12:39;;;;;;;7.03;6.22;;;18.30;73.70;;;;;;4999695;28;20509;-67
2021/09/17 09:15:16;;;;;;;7.28;6.57;;;18.40;73.90;;;;;;5001364;28;20054;-69
2021/09/17 09:17:43;;;;;;;6.53;5.93;;;18.40;72.80;;;;;;5004698;28;20156;-69
2021/09/17 09:20:33;;;;;;;6.70;6.05;;;18.50;74.00;;;;;;5001609;28;20092;-69
2021/09/17 09:23:16;;;;;;;8.95;5.95;;;18.50;71.20;;;;;;5000083;28;20045;-69
2021/09/17 09:25:51;;;;;;;6.63;5.63;;;18.50;71.90;;;;;;5001283;28;20038;-70
2021/09/17 09:28:23;;;;;;;6.55;5.95;;;18.50;72.00;;;;;;5001115;28;20034;-69
2021/09/17 09:30:50;;;;;;;6.55;5.95;;;18.50;72.50;;;;;;5001180;28;20611;-69
2021/09/17 09:33:21;;;;;;;6.38;5.78;;;18.50;72.10;;;;;;5001599;28;20045;-69
2021/09/17 09:35:58;;;;;;;5.82;5.32;;;18.50;71.80;;;;;;4999253;28;20076;-69
2021/09/17 09:38:39;;;;;;;6.07;5.47;;;18.60;70.40;;;;;;5002354;28;20030;-69
2021/09/17 09:41:07;;;;;;;6.65;6.05;;;18.60;70.40;;;;;;5001439;28;20038;-69
2021/09/17 09:43:38;;;;;;;6.63;5.95;;;18.70;70.90;;;;;;5017179;28;20038;-70
2021/09/17 09:46:34;;;;;;;6.68;5.97;;;18.70;71.00;;;;;;5001587;28;20246;-69
2021/09/17 09:48:59;;;;;;;4.53;4.13;;;18.70;69.70;;;;;;5000127;28;20513;-69
2021/09/17 09:51:31;;;;;;;4.95;4.55;;;18.80;71.10;;;;;;4998518;28;20084;-70
2021/09/17 09:54:00;;;;;;;5.25;4.75;;;18.80;70.10;;;;;;5000650;28;20084;-69
2021/09/17 09:56:27;;;;;;;6.05;4.88;;;18.90;70.60;;;;;;5000464;28;20049;-69
2021/09/17 09:58:52;;;;;;;4.75;4.35;;;19.00;70.30;;;;;;5001289;28;20034;-67
2021/09/17 10:01:21;;;;;;;4.68;4.28;;;19.00;69.80;;;;;;5006129;28;20045;-69
2021/09/17 10:03:47;;;;;;;4.88;4.38;;;19.10;69.30;;;;;;4998643;28;20029;-68
2021/09/17 10:06:17;;;;;;;5.05;4.55;;;19.20;69.90;;;;;;4997915;28;20120;-68
2021/09/17 10:08:43;;;;;;;4.70;4.30;;;19.20;68.80;;;;;;4996753;28;20139;-69
2021/09/17 10:11:10;;;;;;;4.53;4.18;;;19.30;69.00;;;;;;4998879;28;20030;-69
2021/09/17 10:13:35;;;;;;;4.68;4.28;;;19.30;68.30;;;;;;5000112;28;20334;-69
2021/09/17 10:16:02;;;;;;;8.48;3.88;;;19.40;68.10;;;;;;4999950;28;20030;-69
2021/09/17 10:18:29;;;;;;;5.03;4.47;;;19.40;67.70;;;;;;5000677;28;20177;-69
2021/09/17 10:20:54;;;;;;;4.90;4.50;;;19.50;67.30;;;;;;5001427;28;20065;-69
2021/09/17 10:23:26;;;;;;;5.63;4.18;;;19.50;66.60;;;;;;5001565;28;20505;-69
2021/09/17 10:26:03;;;;;;;4.07;3.70;;;19.60;64.80;;;;;;5001442;28;20049;-69
2021/09/17 10:28:29;;;;;;;4.10;3.75;;;19.60;64.80;;;;;;5000770;28;20045;-69
2021/09/17 10:31:16;;;;;;;5.03;4.50;;;19.60;66.20;;;;;;5000215;28;20485;-69
2021/09/17 10:33:42;;;;;;;5.72;5.15;;;19.60;65.10;;;;;;5001810;28;20042;-70
2021/09/17 10:36:08;;;;;;;6.57;5.97;;;19.60;66.50;;;;;;5001070;28;20500;-69
2021/09/17 10:38:35;;;;;;;6.78;6.07;;;19.70;66.20;;;;;;5000660;28;20128;-69
2021/09/17 10:41:04;;;;;;;6.70;5.72;;;19.70;65.40;;;;;;4999471;28;20045;-69
2021/09/17 10:43:46;;;;;;;8.30;6.07;;;19.70;66.00;;;;;;4999554;28;20038;-70
2021/09/17 10:46:21;;;;;;;6.13;5.53;;;19.80;65.90;;;;;;5001377;28;20521;-69
2021/09/17 10:48:52;;;;;;;6.32;5.75;;;19.80;65.20;;;;;;4998598;28;20042;-69
2021/09/17 10:51:33;;;;;;;4.80;4.40;;;19.90;65.30;;;;;;5002681;28;20125;-69
2021/09/17 10:54:02;;;;;;;4.32;4.00;;;19.90;64.50;;;;;;5000792;28;20128;-70
2021/09/17 10:56:44;;;;;;;4.70;4.30;;;19.90;64.70;;;;;;5000846;28;20037;-71
2021/09/17 10:59:22;;;;;;;3.42;3.03;;;19.90;64.50;;;;;;5001064;28;20042;-70
2021/09/17 11:02:03;;;;;;;2.95;2.75;;;20.00;63.00;;;;;;5002285;28;20509;-70
2021/09/17 11:04:49;;;;;;;2.70;2.55;;;20.00;63.30;;;;;;5001579;28;20069;-69
2021/09/17 11:07:21;;;;;;;4.07;3.67;;;20.00;61.40;;;;;;5001280;28;20136;-69
2021/09/17 11:09:54;;;;;;;2.65;2.53;;;20.00;60.80;;;;;;5000142;28;20491;-69
2021/09/17 11:12:28;;;;;;;3.08;2.80;;;20.00;60.20;;;;;;5000795;28;20030;-69
2021/09/17 11:15:11;;;;;;;5.53;3.72;;;19.90;60.70;;;;;;4995939;28;20038;-70
2021/09/17 11:17:39;;;;;;;3.50;3.20;;;19.90;61.50;;;;;;4980311;28;20105;-70
2021/09/17 11:20:10;;;;;;;3.17;2.88;;;20.00;62.40;;;;;;4981025;28;20046;-70
2021/09/17 11:23:03;;;;;;;2.45;2.25;;;20.00;61.80;;;;;;4980224;28;20039;-70
2021/09/17 11:25:30;;;;;;;1.73;1.63;;;20.10;59.90;;;;;;4995061;28;20092;-69
2021/09/17 11:27:56;;;;;;;2.33;1.98;;;20.10;61.50;;;;;;4979754;28;20034;-69
2021/09/17 11:30:24;;;;;;;3.50;2.80;;;20.20;60.10;;;;;;4980324;28;20045;-70
2021/09/17 11:32:50;;;;;;;2.60;2.38;;;20.20;59.00;;;;;;4998862;28;20039;-70
2021/09/17 11:35:16;;;;;;;2.90;2.65;;;20.20;58.70;;;;;;4999194;28;20619;-69
2021/09/17 11:37:50;;;;;;;2.67;2.47;;;20.10;58.90;;;;;;4999079;28;20130;-70
2021/09/17 11:40:16;;;;;;;3.00;2.80;;;20.10;58.60;;;;;;5001003;28;20035;-69
2021/09/17 11:42:42;;;;;;;2.95;2.75;;;20.10;59.60;;;;;;4999096;28;20038;-71
2021/09/17 11:45:16;;;;;;;2.70;2.50;;;20.10;59.30;;;;;;4999373;28;20444;-70
2021/09/17 11:47:48;;;;;;;3.38;3.08;;;20.10;59.20;;;;;;5016707;28;20050;-70
2021/09/17 11:50:16;;;;;;;3.78;3.38;;;20.10;58.10;;;;;;5001752;28;20045;-70
2021/09/17 11:52:48;;;;;;;4.53;3.75;;;20.10;58.70;;;;;;4999200;28;20027;-67
2021/09/17 11:55:17;;;;;;;3.47;3.20;;;20.00;57.70;;;;;;5001595;28;20068;-69
2021/09/17 11:57:45;;;;;;;3.38;3.08;;;20.00;58.00;;;;;;5000891;28;20152;-69
2021/09/17 12:00:23;;;;;;;2.90;2.70;;;19.90;58.50;;;;;;5000204;28;20049;-69
2021/09/17 12:03:02;;;;;;;3.33;3.03;;;19.90;58.00;;;;;;5003451;28;20455;-69
2021/09/17 12:05:29;;;;;;;3.65;3.35;;;19.90;57.70;;;;;;4999975;28;20030;-69
2021/09/17 12:07:56;;;;;;;3.97;3.60;;;19.90;58.60;;;;;;5002435;28;20212;-70
2021/09/17 12:10:32;;;;;;;4.05;3.40;;;19.90;59.30;;;;;;5001530;28;20038;-69
2021/09/17 12:13:06;;;;;;;3.40;3.10;;;19.80;58.00;;;;;;5001128;28;20508;-69
2021/09/17 12:15:35;;;;;;;4.73;3.17;;;19.80;58.90;;;;;;5005746;28;20054;-69
2021/09/17 12:18:04;;;;;;;2.72;2.47;;;19.80;58.90;;;;;;5000197;28;20173;-70
2021/09/17 12:20:47;;;;;;;4.20;3.90;;;19.80;59.40;;;;;;4999467;28;20056;-69
2021/09/17 12:23:16;;;;;;;3.13;2.90;;;19.80;57.40;;;;;;5001304;28;20030;-69
2021/09/17 12:25:44;;;;;;;3.33;3.03;;;19.80;59.30;;;;;;5000294;28;20034;-69
2021/09/17 12:28:17;;;;;;;3.05;2.85;;;19.80;59.40;;;;;;5003802;28;20045;-68
2021/09/17 12:30:43;;;;;;;3.42;3.13;;;19.80;59.40;;;;;;5002161;28;20041;-68
2021/09/17 12:33:15;;;;;;;3.45;3.25;;;19.90;58.90;;;;;;5000982;28;20030;-69
2021/09/17 12:35:45;;;;;;;2.63;2.42;;;19.90;57.90;;;;;;5002998;28;20096;-69
2021/09/17 12:38:13;;;;;;;3.30;3.00;;;19.90;58.70;;;;;;5003720;28;20073;-69
2021/09/17 12:40:45;;;;;;;3.17;2.97;;;19.90;57.70;;;;;;5002576;28;20571;-71
2021/09/17 12:43:14;;;;;;;3.15;2.85;;;19.90;57.70;;;;;;5001863;28;20401;-69
2021/09/17 12:45:43;;;;;;;2.45;2.25;;;19.80;57.70;;;;;;5002964;28;20038;-69
2021/09/17 12:48:11;;;;;;;2.58;2.38;;;19.80;58.60;;;;;;5016018;28;20050;-69